Time;durP1;ratioP1;P1;durP2;ratioP2;P2;SDS_P1;SDS_P2;PMS_P1;PMS_P2;Temp;Humidity;BMP_temperature;BMP_pressure;BME280_temperature;BME280_humidity;BME280_pressure;Samples;Min_cycle;Max_cycle;Signal;HPM_P1;HPM_P2
2022/04/17 00:00:48;;;;;;;4.97;4.10;;;6.30;91.50;;;;;;5034209;28;20204;-52
2022/04/17 00:03:14;;;;;;;4.70;3.80;;;6.30;91.90;;;;;;5033823;28;20199;-51
2022/04/17 00:05:39;;;;;;;3.73;3.33;;;6.20;92.20;;;;;;5034374;28;20179;-52
2022/04/17 00:08:05;;;;;;;4.07;3.67;;;6.10;92.40;;;;;;5034161;28;20187;-52
2022/04/17 00:10:31;;;;;;;4.73;3.50;;;6.10;92.70;;;;;;5034101;28;20254;-52
2022/04/17 00:12:57;;;;;;;4.17;3.33;;;6.00;92.70;;;;;;5033645;28;20183;-54
2022/04/17 00:15:23;;;;;;;4.10;3.17;;;6.00;92.90;;;;;;5034153;28;20180;-53
2022/04/17 00:17:49;;;;;;;3.43;3.10;;;6.00;93.00;;;;;;5033896;28;20176;-51
2022/04/17 00:20:17;;;;;;;5.17;3.73;;;6.00;93.10;;;;;;5033246;28;20196;-51
2022/04/17 00:22:45;;;;;;;4.83;3.40;;;6.00;93.10;;;;;;5033641;28;20600;-56
2022/04/17 00:25:12;;;;;;;4.17;3.57;;;6.00;93.10;;;;;;5034344;28;20178;-56
2022/04/17 00:27:40;;;;;;;4.47;3.63;;;5.90;93.20;;;;;;5034161;28;20199;-55
2022/04/17 00:30:07;;;;;;;3.97;3.43;;;5.90;93.10;;;;;;5033880;28;20283;-52
2022/04/17 00:32:33;;;;;;;4.80;3.83;;;5.90;93.10;;;;;;5033399;28;20530;-51
2022/04/17 00:34:59;;;;;;;4.50;4.07;;;5.90;93.30;;;;;;5032992;28;20217;-53
2022/04/17 00:37:25;;;;;;;4.00;3.60;;;5.80;93.50;;;;;;5033360;28;20576;-54
2022/04/17 00:39:51;;;;;;;4.37;3.80;;;5.80;93.60;;;;;;5033391;28;20241;-50
2022/04/17 00:42:17;;;;;;;4.33;3.47;;;5.70;93.50;;;;;;5033120;28;20188;-54
2022/04/17 00:44:43;;;;;;;4.43;3.50;;;5.60;93.80;;;;;;5033440;28;20175;-53
2022/04/17 00:47:09;;;;;;;4.07;3.63;;;5.60;94.10;;;;;;5033631;28;20172;-51
2022/04/17 00:49:35;;;;;;;4.63;3.50;;;5.60;94.10;;;;;;5033483;28;20183;-52
2022/04/17 00:52:01;;;;;;;3.80;3.33;;;5.60;94.30;;;;;;5033309;28;20180;-50
2022/04/17 00:54:28;;;;;;;4.70;3.47;;;5.50;94.40;;;;;;5033000;28;20179;-55
2022/04/17 00:56:55;;;;;;;3.50;3.20;;;5.40;94.50;;;;;;5033124;28;20176;-52
2022/04/17 00:59:22;;;;;;;5.17;4.07;;;5.40;94.60;;;;;;5033183;28;20257;-53
2022/04/17 01:01:48;;;;;;;4.60;3.70;;;5.30;95.00;;;;;;5014813;28;20208;-50
2022/04/17 01:04:14;;;;;;;5.17;3.70;;;5.30;95.10;;;;;;5031882;28;20704;-52
2022/04/17 01:06:40;;;;;;;3.90;3.50;;;5.20;95.10;;;;;;5031684;28;20174;-55
2022/04/17 01:09:06;;;;;;;4.53;3.70;;;5.10;95.20;;;;;;5031490;28;20175;-50
2022/04/17 01:11:32;;;;;;;3.50;3.20;;;5.20;95.40;;;;;;5032811;28;20242;-52
2022/04/17 01:13:58;;;;;;;4.30;3.50;;;5.20;95.40;;;;;;5032589;28;20178;-51
2022/04/17 01:16:25;;;;;;;4.20;3.23;;;5.20;95.50;;;;;;5032839;28;20608;-53
2022/04/17 01:19:00;;;;;;;5.73;3.67;;;5.10;95.70;;;;;;5032881;28;20242;-52
2022/04/17 01:21:26;;;;;;;5.30;3.50;;;5.20;95.70;;;;;;5032907;28;20225;-53
2022/04/17 01:26:56;;;;;;;3.80;3.40;;;5.20;96.00;;;;;;5033087;28;20660;-52
2022/04/17 01:29:22;;;;;;;3.83;3.43;;;5.20;96.00;;;;;;5032473;28;20198;-52
2022/04/17 01:31:48;;;;;;;4.03;3.50;;;5.20;96.20;;;;;;5032728;28;20251;-54
2022/04/17 01:34:16;;;;;;;4.80;3.53;;;5.20;96.20;;;;;;5032227;28;20235;-51
2022/04/17 01:36:45;;;;;;;3.63;3.27;;;5.20;96.30;;;;;;5032597;28;20259;-51
2022/04/17 01:39:14;;;;;;;4.27;3.40;;;5.10;96.30;;;;;;5032346;28;20199;-51
2022/04/17 01:41:40;;;;;;;3.43;3.13;;;5.10;96.40;;;;;;5032397;28;20218;-52
2022/04/17 01:44:06;;;;;;;5.07;3.37;;;5.10;96.60;;;;;;5032008;28;20188;-51
2022/04/17 01:46:33;;;;;;;3.90;3.30;;;5.10;96.60;;;;;;5032499;28;20176;-51
2022/04/17 01:48:58;;;;;;;4.50;3.30;;;5.00;96.90;;;;;;5031596;28;20172;-51
2022/04/17 01:51:24;;;;;;;4.77;3.47;;;5.00;96.80;;;;;;5032322;28;20175;-51
2022/04/17 01:53:49;;;;;;;3.93;3.37;;;5.00;96.90;;;;;;5031867;28;20179;-52
2022/04/17 01:56:15;;;;;;;4.43;3.47;;;5.00;97.10;;;;;;5032186;28;20179;-51
2022/04/17 01:58:41;;;;;;;3.90;3.50;;;4.90;97.30;;;;;;5032368;28;20179;-52
2022/04/17 02:01:06;;;;;;;3.97;3.23;;;4.90;97.50;;;;;;5032040;28;20553;-51
2022/04/17 02:03:32;;;;;;;3.80;3.40;;;4.80;97.50;;;;;;5031741;28;20647;-54
2022/04/17 02:05:57;;;;;;;4.83;3.60;;;4.80;97.50;;;;;;5032045;28;20168;-51
2022/04/17 02:08:24;;;;;;;4.53;3.50;;;4.70;97.80;;;;;;5032097;28;20178;-55
2022/04/17 02:10:49;;;;;;;5.10;3.70;;;4.70;98.00;;;;;;5031809;28;20676;-51
2022/04/17 02:13:15;;;;;;;3.50;3.20;;;4.70;98.00;;;;;;5031757;28;20222;-52
2022/04/17 02:15:41;;;;;;;3.60;3.30;;;4.70;98.10;;;;;;5031919;28;20174;-55
2022/04/17 02:18:06;;;;;;;3.80;3.40;;;4.70;98.20;;;;;;5031953;28;20178;-52
2022/04/17 02:20:32;;;;;;;4.13;3.33;;;4.70;98.30;;;;;;5031836;28;20200;-55
2022/04/17 02:22:57;;;;;;;4.30;3.33;;;6.00;99.10;;;;;;5031386;28;20208;-54
2022/04/17 02:25:23;;;;;;;3.43;3.13;;;4.60;98.50;;;;;;5031938;28;20255;-52
2022/04/17 02:27:49;;;;;;;4.43;3.43;;;4.50;98.50;;;;;;5031809;28;20258;-51
2022/04/17 02:30:14;;;;;;;4.20;3.30;;;4.50;98.50;;;;;;5031667;28;20207;-54
2022/04/17 02:32:40;;;;;;;4.93;3.20;;;4.50;98.70;;;;;;5031277;28;20179;-54
2022/04/17 02:35:06;;;;;;;3.47;3.17;;;4.50;98.70;;;;;;5031725;28;20706;-52
2022/04/17 02:37:32;;;;;;;5.23;3.20;;;4.50;99.00;;;;;;5031579;28;20172;-51
2022/04/17 02:39:57;;;;;;;3.70;3.37;;;4.50;99.00;;;;;;5030858;28;20192;-53
2022/04/17 02:42:23;;;;;;;5.47;3.47;;;4.50;99.10;;;;;;5031162;28;20199;-54
2022/04/17 02:44:48;;;;;;;4.57;3.33;;;4.40;99.10;;;;;;5031679;28;20172;-55
2022/04/17 02:49:58;;;;;;;3.60;3.30;;;4.40;99.40;;;;;;5031524;28;20198;-53
2022/04/17 02:52:23;;;;;;;3.57;3.17;;;4.30;99.50;;;;;;5031273;28;20184;-54
2022/04/17 02:54:49;;;;;;;5.13;3.47;;;4.30;99.70;;;;;;5030805;28;20175;-51
2022/04/17 02:57:15;;;;;;;3.57;3.27;;;4.30;99.70;;;;;;5031636;28;20176;-52
2022/04/17 02:59:40;;;;;;;3.43;3.13;;;4.20;99.80;;;;;;5033151;28;20200;-51
2022/04/17 03:07:34;;;;;;;4.03;3.50;;;4.30;99.90;;;;;;5035296;28;20178;-54
2022/04/17 03:10:02;;;;;;;3.40;3.10;;;4.20;99.90;;;;;;5035646;28;20188;-55
2022/04/17 03:12:27;;;;;;;4.07;3.30;;;4.20;99.90;;;;;;5035987;28;20171;-54
2022/04/17 03:14:53;;;;;;;4.23;3.40;;;4.20;99.90;;;;;;5036125;28;20186;-54
2022/04/17 03:17:19;;;;;;;3.70;3.27;;;4.20;99.90;;;;;;5036283;28;20679;-50
2022/04/17 03:19:46;;;;;;;3.90;3.33;;;4.20;99.90;;;;;;5035187;28;20310;-50
2022/04/17 03:22:11;;;;;;;3.93;3.13;;;4.20;99.90;;;;;;5034761;28;20237;-50
2022/04/17 03:24:37;;;;;;;3.50;3.20;;;4.10;99.90;;;;;;5034920;28;20641;-53
2022/04/17 03:27:02;;;;;;;3.57;3.27;;;4.10;99.90;;;;;;5034832;28;20171;-51
2022/04/17 03:29:28;;;;;;;4.37;3.23;;;4.20;99.90;;;;;;5034744;28;20208;-50
2022/04/17 03:31:54;;;;;;;3.97;3.17;;;4.10;99.90;;;;;;5034837;28;20683;-54
2022/04/17 03:34:19;;;;;;;3.83;3.37;;;4.10;99.90;;;;;;5034616;28;20168;-50
2022/04/17 03:36:46;;;;;;;4.00;3.37;;;4.00;99.90;;;;;;5034745;28;20192;-50
2022/04/17 03:39:12;;;;;;;4.57;3.47;;;4.00;99.90;;;;;;5034770;28;20187;-51
2022/04/17 03:41:37;;;;;;;4.00;3.13;;;4.10;99.90;;;;;;5033659;28;20668;-51
2022/04/17 03:44:04;;;;;;;4.07;3.27;;;4.00;99.90;;;;;;5034314;28;20212;-51
2022/04/17 03:46:30;;;;;;;3.77;3.40;;;4.00;99.90;;;;;;5034629;28;20168;-51
2022/04/17 03:48:55;;;;;;;5.87;3.60;;;3.90;99.90;;;;;;5034433;28;20178;-51
2022/04/17 03:51:21;;;;;;;4.53;3.33;;;4.00;99.90;;;;;;5034454;28;20207;-53
2022/04/17 03:53:46;;;;;;;3.60;3.30;;;3.90;99.90;;;;;;5034149;28;20827;-51
2022/04/17 03:56:12;;;;;;;4.50;3.27;;;3.90;99.90;;;;;;5034359;28;20179;-51
2022/04/17 03:58:37;;;;;;;3.20;2.90;;;3.90;99.90;;;;;;5034227;28;20645;-54
2022/04/17 04:01:03;;;;;;;3.67;3.07;;;3.80;99.90;;;;;;5034260;28;20246;-51
2022/04/17 04:03:29;;;;;;;3.40;3.10;;;3.80;99.90;;;;;;5033985;28;20258;-52
2022/04/17 04:05:55;;;;;;;3.33;3.03;;;3.80;99.90;;;;;;5033627;28;20222;-52
2022/04/17 04:08:21;;;;;;;3.53;3.20;;;3.70;99.90;;;;;;5034263;28;20164;-53
2022/04/17 04:10:46;;;;;;;5.43;3.40;;;3.70;99.90;;;;;;5033466;28;20187;-53
2022/04/17 04:13:12;;;;;;;4.43;3.00;;;3.70;99.90;;;;;;5034030;28;20187;-50
2022/04/17 04:15:37;;;;;;;3.50;3.20;;;3.70;99.90;;;;;;5033964;28;20250;-50
2022/04/17 04:18:03;;;;;;;3.97;3.20;;;3.70;99.90;;;;;;5033996;28;20637;-52
2022/04/17 04:20:28;;;;;;;3.83;3.30;;;3.70;99.90;;;;;;5033802;28;20314;-51
2022/04/17 04:22:57;;;;;;;3.60;2.90;;;3.70;99.90;;;;;;5015727;28;20204;-51
2022/04/17 04:25:23;;;;;;;4.27;3.60;;;3.70;99.90;;;;;;5033717;28;20179;-52
2022/04/17 04:30:33;;;;;;;3.20;2.90;;;3.70;99.90;;;;;;5062489;22;20719;-49
2022/04/17 04:32:58;;;;;;;4.37;3.17;;;3.70;99.90;;;;;;5032778;28;20176;-50
2022/04/17 04:35:33;;;;;;;4.47;3.17;;;3.70;99.90;;;;;;5033759;28;20176;-51
2022/04/17 04:38:01;;;;;;;3.30;3.00;;;3.70;99.90;;;;;;5033837;28;20194;-51
2022/04/17 04:40:30;;;;;;;3.53;3.10;;;3.60;99.90;;;;;;5033576;28;20840;-50
2022/04/17 04:42:59;;;;;;;3.47;2.93;;;3.70;99.90;;;;;;5033088;28;20898;-50
2022/04/17 04:48:10;;;;;;;4.27;2.90;;;3.70;99.90;;;;;;5033654;28;20230;-51
2022/04/17 04:50:36;;;;;;;3.80;3.43;;;3.70;99.90;;;;;;5033286;28;20427;-50
2022/04/17 04:53:02;;;;;;;3.87;3.30;;;3.80;99.90;;;;;;5032875;28;20672;-50
2022/04/17 04:55:28;;;;;;;3.83;2.93;;;3.80;99.90;;;;;;5032184;28;20715;-52
2022/04/17 04:57:53;;;;;;;3.97;2.90;;;3.80;99.90;;;;;;5033260;28;20226;-49
2022/04/17 05:00:19;;;;;;;4.67;3.37;;;3.80;99.90;;;;;;5033124;28;20442;-50
2022/04/17 05:02:45;;;;;;;3.83;2.80;;;3.90;99.90;;;;;;5032736;28;20211;-50
2022/04/17 05:05:10;;;;;;;3.87;3.27;;;3.90;99.90;;;;;;5033147;28;20179;-50
2022/04/17 05:07:37;;;;;;;3.70;2.83;;;3.90;99.90;;;;;;5033185;28;20589;-50
2022/04/17 05:10:06;;;;;;;4.63;3.43;;;4.00;99.90;;;;;;5032650;28;20192;-53
2022/04/17 05:12:33;;;;;;;3.37;3.07;;;4.00;99.90;;;;;;5032776;28;20187;-51
2022/04/17 05:14:59;;;;;;;2.93;2.70;;;4.00;99.90;;;;;;5031562;28;20314;-50
2022/04/17 05:17:25;;;;;;;3.87;2.80;;;4.10;99.90;;;;;;5032812;28;20168;-50
2022/04/17 05:19:51;;;;;;;3.47;3.13;;;4.20;99.90;;;;;;5032041;28;20561;-50
2022/04/17 05:22:17;;;;;;;5.20;3.30;;;4.20;99.90;;;;;;5031796;28;20680;-52
2022/04/17 05:24:44;;;;;;;3.50;2.80;;;4.20;99.90;;;;;;5031473;28;20175;-54
2022/04/17 05:27:09;;;;;;;3.50;3.00;;;4.30;99.90;;;;;;5032845;28;20254;-50
2022/04/17 05:29:35;;;;;;;4.27;3.10;;;4.30;99.90;;;;;;5032362;28;20716;-52
2022/04/17 05:32:01;;;;;;;4.10;2.97;;;4.40;99.90;;;;;;5032424;28;20211;-52
2022/04/17 05:34:27;;;;;;;5.07;3.33;;;4.50;99.90;;;;;;5032186;28;20361;-53
2022/04/17 05:36:53;;;;;;;2.93;2.60;;;4.60;99.90;;;;;;5032566;28;20207;-50
2022/04/17 05:39:18;;;;;;;4.33;3.00;;;4.70;99.90;;;;;;5032617;28;20182;-50
2022/04/17 05:41:45;;;;;;;3.90;2.80;;;4.80;99.90;;;;;;5032243;28;20195;-51
2022/04/17 05:44:12;;;;;;;3.17;2.80;;;4.80;99.90;;;;;;5032100;28;20573;-50
2022/04/17 05:46:41;;;;;;;3.50;2.70;;;4.90;99.90;;;;;;5030693;28;20186;-54
2022/04/17 05:49:07;;;;;;;3.23;2.90;;;5.00;99.90;;;;;;5032420;28;20667;-52
2022/04/17 05:51:34;;;;;;;3.27;2.97;;;5.10;99.90;;;;;;5032176;28;20684;-52
2022/04/17 05:54:00;;;;;;;2.97;2.67;;;5.10;99.90;;;;;;5032029;28;20549;-53
2022/04/17 05:56:27;;;;;;;4.80;2.90;;;5.20;99.90;;;;;;5032168;28;20171;-51
2022/04/17 05:58:52;;;;;;;3.43;2.97;;;5.30;99.90;;;;;;5031052;28;20183;-51
2022/04/17 06:01:18;;;;;;;3.03;2.63;;;5.40;99.90;;;;;;5032013;28;20270;-50
2022/04/17 06:03:43;;;;;;;4.33;2.90;;;5.50;99.90;;;;;;5031657;28;20212;-51
2022/04/17 06:06:09;;;;;;;3.33;2.80;;;5.50;99.90;;;;;;5032198;28;20183;-52
2022/04/17 06:08:35;;;;;;;3.53;3.17;;;5.60;99.90;;;;;;5031337;28;20633;-55
2022/04/17 06:11:01;;;;;;;3.10;2.60;;;5.70;99.90;;;;;;5031799;28;20569;-52
2022/04/17 06:13:26;;;;;;;3.60;2.80;;;5.90;99.90;;;;;;5031511;28;20182;-51
2022/04/17 06:15:52;;;;;;;4.67;3.10;;;5.90;99.90;;;;;;5031877;28;20176;-54
2022/04/17 06:18:18;;;;;;;3.73;2.73;;;6.10;99.90;;;;;;5031664;28;20172;-52
2022/04/17 06:20:43;;;;;;;2.70;2.47;;;6.10;99.90;;;;;;5031793;28;20191;-50
2022/04/17 06:23:09;;;;;;;2.80;2.60;;;6.20;99.90;;;;;;5031425;28;20208;-51
2022/04/17 06:25:34;;;;;;;4.70;2.93;;;6.20;99.90;;;;;;5031842;28;20168;-52
2022/04/17 06:28:00;;;;;;;4.27;3.10;;;6.30;99.90;;;;;;5031980;28;20668;-52
2022/04/17 06:30:27;;;;;;;3.63;3.00;;;6.30;99.80;;;;;;5031634;28;20208;-50
2022/04/17 06:32:52;;;;;;;2.87;2.67;;;6.30;99.80;;;;;;5031605;28;20206;-53
2022/04/17 06:35:18;;;;;;;3.17;2.83;;;6.40;99.90;;;;;;5031425;28;20641;-53
2022/04/17 06:37:47;;;;;;;2.87;2.63;;;6.60;99.90;;;;;;5030966;28;20180;-50
2022/04/17 06:40:16;;;;;;;4.87;3.10;;;6.70;99.90;;;;;;5031545;28;20199;-50
2022/04/17 06:42:41;;;;;;;3.80;2.97;;;6.80;99.90;;;;;;5031245;28;20244;-50
2022/04/17 06:45:07;;;;;;;3.43;2.77;;;6.90;99.90;;;;;;5031563;28;20648;-53
2022/04/17 06:47:33;;;;;;;3.97;3.03;;;7.10;99.90;;;;;;5031564;28;20176;-52
2022/04/17 06:49:58;;;;;;;2.97;2.70;;;7.30;99.90;;;;;;5031343;28;20191;-54
2022/04/17 06:52:24;;;;;;;5.30;2.63;;;7.50;99.50;;;;;;5029680;28;20183;-52
2022/04/17 06:54:49;;;;;;;4.03;2.73;;;7.80;99.40;;;;;;5030309;28;20191;-51
2022/04/17 06:57:15;;;;;;;3.00;2.80;;;8.10;98.80;;;;;;5030722;28;20188;-52
2022/04/17 06:59:41;;;;;;;3.57;2.60;;;8.20;98.00;;;;;;5029644;28;20199;-52
2022/04/17 07:02:06;;;;;;;3.17;2.83;;;8.40;98.40;;;;;;5030218;28;20171;-50
2022/04/17 07:04:32;;;;;;;2.80;2.60;;;8.50;98.40;;;;;;5031236;28;20195;-50
2022/04/17 07:06:57;;;;;;;2.73;2.50;;;8.70;98.50;;;;;;5031212;28;20179;-51
2022/04/17 07:09:23;;;;;;;3.30;2.73;;;8.80;98.10;;;;;;5031318;28;20172;-54
2022/04/17 07:11:49;;;;;;;4.03;2.70;;;9.00;97.80;;;;;;5031154;28;20175;-51
2022/04/17 07:14:15;;;;;;;5.13;2.73;;;9.10;97.80;;;;;;5030706;28;20194;-54
2022/04/17 07:16:43;;;;;;;2.77;2.53;;;9.40;97.30;;;;;;5031041;28;20202;-54
2022/04/17 07:19:08;;;;;;;3.43;2.87;;;9.60;96.80;;;;;;5031151;28;20171;-51
2022/04/17 07:21:34;;;;;;;2.87;2.63;;;9.70;96.80;;;;;;5031177;28;20195;-53
2022/04/17 07:23:59;;;;;;;3.40;2.80;;;9.90;95.80;;;;;;5031134;28;20235;-56
2022/04/17 07:26:25;;;;;;;3.73;2.63;;;9.90;96.40;;;;;;5031308;28;20226;-52
2022/04/17 07:28:50;;;;;;;3.87;2.80;;;10.00;96.00;;;;;;5031106;28;20585;-53
2022/04/17 07:31:16;;;;;;;4.40;2.83;;;10.20;95.80;;;;;;5031110;28;20285;-53
2022/04/17 07:33:42;;;;;;;2.83;2.50;;;10.30;95.30;;;;;;5030720;28;20302;-56
2022/04/17 07:36:09;;;;;;;3.10;2.80;;;10.40;94.40;;;;;;5031242;28;20182;-55
2022/04/17 07:38:34;;;;;;;2.80;2.53;;;10.30;92.70;;;;;;5031001;28;20172;-53
2022/04/17 07:41:00;;;;;;;3.40;3.00;;;10.40;94.40;;;;;;5030955;28;20202;-53
2022/04/17 07:43:25;;;;;;;2.67;2.30;;;10.40;93.60;;;;;;5030436;28;20217;-55
2022/04/17 07:45:52;;;;;;;3.87;2.60;;;10.50;94.10;;;;;;5031495;28;20168;-53
2022/04/17 07:48:18;;;;;;;2.50;2.30;;;10.60;92.60;;;;;;5034617;28;20168;-52
2022/04/17 07:50:43;;;;;;;2.80;2.60;;;10.70;92.40;;;;;;5033456;28;20187;-57
2022/04/17 07:53:09;;;;;;;3.07;2.63;;;11.00;93.00;;;;;;5034176;28;20605;-54
2022/04/17 07:55:34;;;;;;;3.70;2.63;;;11.20;91.10;;;;;;5034270;28;20676;-53
2022/04/17 08:00:42;;;;;;;3.07;2.67;;;11.20;91.80;;;;;;5034339;28;20950;-54
2022/04/17 08:03:21;;;;;;;4.07;2.90;;;11.30;91.90;;;;;;5033990;28;20199;-52
2022/04/17 08:05:47;;;;;;;3.77;2.80;;;13.70;92.00;;;;;;5034224;28;20191;-57
2022/04/17 08:08:13;;;;;;;3.97;2.53;;;11.40;92.50;;;;;;5033995;28;20218;-56
2022/04/17 08:10:40;;;;;;;3.00;2.70;;;11.30;90.50;;;;;;5033951;28;20758;-54
2022/04/17 08:13:06;;;;;;;2.97;2.70;;;11.10;89.80;;;;;;5033878;28;20259;-53
2022/04/17 08:15:32;;;;;;;2.83;2.50;;;11.10;90.30;;;;;;5034107;28;20712;-54
2022/04/17 08:17:58;;;;;;;2.93;2.50;;;11.40;91.50;;;;;;5033850;28;20202;-55
2022/04/17 08:20:23;;;;;;;4.43;2.90;;;11.70;92.50;;;;;;5032474;28;20209;-51
2022/04/17 08:22:49;;;;;;;2.80;2.50;;;11.70;91.50;;;;;;5033178;28;20191;-52
2022/04/17 08:25:15;;;;;;;2.50;2.30;;;11.60;93.40;;;;;;5033870;28;20217;-52
2022/04/17 08:27:48;;;;;;;3.20;2.57;;;11.60;91.60;;;;;;5033758;28;20239;-51
2022/04/17 08:30:22;;;;;;;3.30;2.70;;;11.60;90.20;;;;;;5033663;28;20215;-51
2022/04/17 08:32:48;;;;;;;3.90;2.80;;;11.60;90.50;;;;;;5032959;28;20237;-51
2022/04/17 08:35:14;;;;;;;5.07;2.90;;;11.70;91.20;;;;;;5033700;28;20662;-55
2022/04/17 08:37:39;;;;;;;2.33;2.13;;;11.50;86.30;;;;;;5033622;28;20229;-51
2022/04/17 08:40:06;;;;;;;3.63;2.63;;;11.50;90.20;;;;;;5033618;28;20257;-51
2022/04/17 08:42:32;;;;;;;2.80;2.60;;;11.60;89.90;;;;;;5033074;28;20246;-54
2022/04/17 08:44:58;;;;;;;3.37;2.80;;;11.70;88.50;;;;;;5032270;28;20537;-51
2022/04/17 08:47:25;;;;;;;3.70;2.50;;;11.60;85.70;;;;;;5033574;28;20168;-53
2022/04/17 08:49:54;;;;;;;3.00;2.70;;;11.60;85.80;;;;;;5033380;28;20611;-51
2022/04/17 08:52:20;;;;;;;2.40;2.20;;;11.70;90.00;;;;;;5032557;28;20176;-51
2022/04/17 08:54:47;;;;;;;3.83;2.60;;;11.80;88.60;;;;;;5033371;28;20247;-52
2022/04/17 08:57:13;;;;;;;2.87;2.60;;;11.80;82.90;;;;;;5033317;28;20183;-53
2022/04/17 08:59:39;;;;;;;3.63;2.50;;;11.90;87.50;;;;;;5033115;28;20172;-52
2022/04/17 09:02:12;;;;;;;2.93;2.60;;;12.20;82.50;;;;;;5033061;28;20176;-52
2022/04/17 09:04:38;;;;;;;4.30;2.50;;;13.60;82.70;;;;;;5033013;28;20167;-51
2022/04/17 09:07:10;;;;;;;4.07;2.90;;;12.70;81.20;;;;;;5032528;28;20649;-51
2022/04/17 09:09:48;;;;;;;2.60;2.40;;;12.80;82.60;;;;;;5033072;28;20649;-51
2022/04/17 09:12:23;;;;;;;2.73;2.30;;;12.40;80.50;;;;;;5033194;28;20195;-51
2022/04/17 09:14:49;;;;;;;3.20;2.60;;;12.30;87.00;;;;;;5033211;28;20167;-52
2022/04/17 09:17:15;;;;;;;3.33;2.50;;;12.30;81.50;;;;;;5032971;28;20169;-51
2022/04/17 09:19:42;;;;;;;5.20;2.80;;;12.50;79.50;;;;;;5033023;28;20172;-53
2022/04/17 09:22:09;;;;;;;3.30;2.67;;;12.50;80.60;;;;;;5032418;28;20194;-51
2022/04/17 09:24:39;;;;;;;5.20;2.73;;;12.40;83.60;;;;;;5032663;28;20164;-52
2022/04/17 09:27:06;;;;;;;3.07;2.43;;;12.50;84.20;;;;;;5032692;28;20174;-54
2022/04/17 09:29:36;;;;;;;3.20;2.60;;;12.60;80.70;;;;;;5032627;28;20250;-53
2022/04/17 09:32:05;;;;;;;2.67;2.27;;;12.70;80.30;;;;;;5032555;28;20173;-52
2022/04/17 09:34:55;;;;;;;3.13;2.50;;;12.70;76.70;;;;;;5032395;28;20176;-54
2022/04/17 09:37:27;;;;;;;2.33;2.13;;;13.00;83.70;;;;;;5032492;28;20706;-54
2022/04/17 09:39:53;;;;;;;2.50;2.30;;;13.40;84.50;;;;;;5032453;28;20550;-53
2022/04/17 09:42:23;;;;;;;4.53;2.43;;;13.60;81.70;;;;;;5032042;28;20194;-52
2022/04/17 09:44:50;;;;;;;2.30;2.10;;;14.00;82.00;;;;;;5032006;28;20167;-54
2022/04/17 09:47:29;;;;;;;2.70;2.00;;;14.10;80.10;;;;;;5032542;28;20186;-54
2022/04/17 09:50:08;;;;;;;1.80;1.70;;;14.20;77.90;;;;;;5032153;28;20191;-52
2022/04/17 09:52:40;;;;;;;2.83;2.10;;;14.50;76.90;;;;;;5031872;28;20241;-50
2022/04/17 09:55:06;;;;;;;3.73;2.30;;;14.90;77.10;;;;;;5032244;28;20183;-57
2022/04/17 09:57:36;;;;;;;2.30;2.07;;;15.00;74.30;;;;;;5032365;28;20172;-57
2022/04/17 10:00:20;;;;;;;2.77;2.00;;;15.10;76.20;;;;;;5031964;28;20207;-51
2022/04/17 10:02:47;;;;;;;2.47;2.00;;;15.50;74.00;;;;;;5031680;28;20203;-53
2022/04/17 10:05:15;;;;;;;2.30;2.07;;;15.70;71.10;;;;;;5031984;28;20197;-52
2022/04/17 10:07:42;;;;;;;2.73;2.00;;;16.00;72.70;;;;;;5032174;28;20546;-51
2022/04/17 10:10:10;;;;;;;4.77;2.40;;;16.20;75.60;;;;;;5031515;28;20191;-54
2022/04/17 10:12:39;;;;;;;2.60;2.00;;;16.50;72.20;;;;;;5031573;28;20165;-52
2022/04/17 10:15:06;;;;;;;2.13;1.93;;;16.80;73.60;;;;;;5031669;28;20176;-52
2022/04/17 10:17:33;;;;;;;2.20;1.97;;;17.10;72.40;;;;;;5031773;28;20257;-55
2022/04/17 10:20:08;;;;;;;3.90;2.27;;;17.20;70.00;;;;;;5031715;28;20192;-56
2022/04/17 10:22:35;;;;;;;3.83;2.37;;;17.20;64.50;;;;;;5031373;28;20203;-56
2022/04/17 10:25:03;;;;;;;2.27;2.07;;;16.90;62.50;;;;;;5031674;28;20177;-52
2022/04/17 10:27:37;;;;;;;2.03;1.90;;;16.60;63.10;;;;;;5031734;28;20168;-56
2022/04/17 10:30:08;;;;;;;1.87;1.77;;;16.30;66.30;;;;;;5048201;22;20174;-93
2022/04/17 10:32:52;;;;;;;2.43;1.87;;;16.20;67.00;;;;;;5048469;28;20203;-92
2022/04/17 10:35:30;;;;;;;2.70;2.10;;;16.50;66.60;;;;;;5050000;28;20184;-93
2022/04/17 10:38:08;;;;;;;2.13;1.90;;;17.00;64.80;;;;;;5050321;28;20174;-91
2022/04/17 10:40:34;;;;;;;2.00;1.80;;;17.80;62.30;;;;;;5051234;28;20175;-91
2022/04/17 10:43:04;;;;;;;3.23;2.00;;;17.10;66.00;;;;;;5050031;28;20742;-92
2022/04/17 10:45:31;;;;;;;2.33;1.83;;;17.30;64.70;;;;;;5049690;28;20610;-92
2022/04/17 10:48:05;;;;;;;3.00;1.80;;;17.60;63.20;;;;;;5050267;28;20611;-92
2022/04/17 10:50:50;;;;;;;1.90;1.53;;;17.80;61.70;;;;;;5033740;28;20237;-92
2022/04/17 10:53:28;;;;;;;1.77;1.67;;;18.20;60.10;;;;;;5049159;28;20183;-92
2022/04/17 10:56:10;;;;;;;3.17;2.07;;;18.30;56.80;;;;;;5049322;28;20639;-92
2022/04/17 10:58:42;;;;;;;1.50;1.40;;;18.30;58.70;;;;;;5049050;28;20178;-92
2022/04/17 11:01:13;;;;;;;1.80;1.70;;;18.30;58.00;;;;;;5049399;28;20622;-92
2022/04/17 11:03:49;;;;;;;2.27;1.77;;;18.30;61.30;;;;;;5049503;28;20269;-91
2022/04/17 11:06:42;;;;;;;3.67;1.70;;;18.30;56.60;;;;;;5049793;28;20686;-92
2022/04/17 11:09:15;;;;;;;2.07;1.87;;;18.10;57.20;;;;;;5049680;28;20206;-92
2022/04/17 11:11:45;;;;;;;2.17;1.67;;;18.00;55.70;;;;;;5050923;28;20185;-92
2022/04/17 11:14:22;;;;;;;1.80;1.53;;;17.90;57.10;;;;;;5052314;28;20187;-92
2022/04/17 11:16:59;;;;;;;3.03;1.77;;;18.20;56.90;;;;;;5050781;28;20620;-92
2022/04/17 11:19:28;;;;;;;2.40;1.80;;;18.50;58.50;;;;;;5050362;28;20176;-92
2022/04/17 11:22:00;;;;;;;2.20;2.00;;;18.20;59.60;;;;;;5053347;28;20184;-92
2022/04/17 11:24:27;;;;;;;2.30;2.10;;;17.70;58.50;;;;;;5060758;28;20194;-92
2022/04/17 11:26:57;;;;;;;2.93;2.27;;;17.10;60.80;;;;;;5040004;28;20203;-92
2022/04/17 11:29:50;;;;;;;2.10;1.93;;;16.30;62.00;;;;;;5053870;28;20165;-91
2022/04/17 11:32:35;;;;;;;6.67;2.40;;;16.20;64.60;;;;;;5048359;28;20203;-92
2022/04/17 11:35:03;;;;;;;2.30;2.00;;;16.10;65.10;;;;;;5054529;28;20176;-92
2022/04/17 11:37:31;;;;;;;3.13;2.30;;;15.70;63.00;;;;;;5052445;28;20168;-93
2022/04/17 11:40:15;;;;;;;2.77;2.10;;;15.80;67.10;;;;;;5053054;28;20176;-92
2022/04/17 11:42:43;;;;;;;2.33;2.00;;;15.80;62.90;;;;;;5052061;28;20291;-92
2022/04/17 11:45:11;;;;;;;2.00;1.90;;;15.80;64.20;;;;;;5053027;28;20198;-92
2022/04/17 11:47:42;;;;;;;2.50;1.70;;;15.90;64.00;;;;;;5052746;28;20200;-92
2022/04/17 11:50:09;;;;;;;3.07;2.20;;;16.30;62.70;;;;;;5053110;28;20168;-93
2022/04/17 11:52:42;;;;;;;2.77;2.57;;;17.00;61.20;;;;;;5052539;28;20178;-93
2022/04/17 11:55:08;;;;;;;2.23;2.03;;;17.10;59.00;;;;;;5054207;28;20233;-94
2022/04/17 11:57:53;;;;;;;3.10;2.03;;;17.00;58.10;;;;;;5052574;28;20277;-93
2022/04/17 12:00:19;;;;;;;1.77;1.67;;;16.80;57.60;;;;;;5052675;28;20213;-93
2022/04/17 12:02:44;;;;;;;3.27;2.10;;;16.70;57.30;;;;;;5053300;28;20296;-92
2022/04/17 12:05:16;;;;;;;2.30;1.80;;;16.90;57.40;;;;;;5053991;28;20185;-92
2022/04/17 12:07:44;;;;;;;2.23;1.50;;;17.30;59.30;;;;;;5052103;28;20232;-92
2022/04/17 12:10:12;;;;;;;1.90;1.80;;;17.40;58.40;;;;;;5051498;28;20180;-92
2022/04/17 12:12:43;;;;;;;2.67;1.80;;;17.70;56.70;;;;;;5051612;28;20176;-94
2022/04/17 12:15:12;;;;;;;2.07;1.50;;;17.60;57.20;;;;;;5051836;28;20233;-91
2022/04/17 12:17:38;;;;;;;1.83;1.43;;;17.60;57.90;;;;;;5051706;28;20263;-92
2022/04/17 12:20:07;;;;;;;1.90;1.70;;;17.80;59.20;;;;;;5051395;28;20672;-92
2022/04/17 12:22:34;;;;;;;1.47;1.37;;;18.30;58.00;;;;;;5051124;28;20898;-93
2022/04/17 12:25:00;;;;;;;2.53;1.60;;;18.80;56.10;;;;;;5051637;28;20177;-94
2022/04/17 12:27:26;;;;;;;1.77;1.67;;;19.30;54.70;;;;;;5052032;28;20200;-93
2022/04/17 12:29:56;;;;;;;2.72;1.60;;;20.10;55.90;;;;;;5052330;28;20179;-92
2022/04/17 12:32:24;;;;;;;1.52;1.42;;;21.00;57.60;;;;;;5054910;28;20577;-93
2022/04/17 12:35:08;;;;;;;1.85;1.67;;;21.00;56.80;;;;;;5053332;28;20215;-93
2022/04/17 12:37:34;;;;;;;2.45;1.70;;;19.80;55.80;;;;;;5053265;28;20188;-92
2022/04/17 12:40:10;;;;;;;1.50;1.40;;;19.20;57.40;;;;;;5051792;28;20255;-92
2022/04/17 12:42:36;;;;;;;2.28;1.45;;;19.40;59.20;;;;;;5051747;28;20250;-92
2022/04/17 12:45:07;;;;;;;1.80;1.40;;;19.00;56.30;;;;;;5036466;28;20211;-93
2022/04/17 12:47:36;;;;;;;2.73;1.90;;;18.10;56.40;;;;;;5034332;28;20582;-92
2022/04/17 12:50:09;;;;;;;1.67;1.57;;;17.10;59.10;;;;;;5051170;28;20183;-92
2022/04/17 12:52:35;;;;;;;2.00;1.80;;;17.00;67.10;;;;;;5056517;28;20191;-93
2022/04/17 12:55:08;;;;;;;1.92;1.50;;;17.30;60.60;;;;;;5050752;28;20174;-91
2022/04/17 12:57:36;;;;;;;1.90;1.67;;;17.30;59.30;;;;;;5051713;28;20180;-92
2022/04/17 13:00:17;;;;;;;2.53;1.55;;;17.40;58.10;;;;;;5050751;28;20197;-93
2022/04/17 13:02:43;;;;;;;2.50;1.45;;;17.70;57.60;;;;;;5050650;28;20224;-92
2022/04/17 13:05:28;;;;;;;2.05;1.55;;;18.00;59.60;;;;;;5050909;28;20246;-92
2022/04/17 13:08:06;;;;;;;2.30;1.63;;;18.60;62.60;;;;;;5050664;28;20523;-92
2022/04/17 13:10:32;;;;;;;2.65;1.50;;;19.50;58.80;;;;;;5050493;28;20175;-90
2022/04/17 13:12:58;;;;;;;2.33;1.60;;;19.90;56.80;;;;;;5050770;28;20175;-90
2022/04/17 13:15:32;;;;;;;1.58;1.20;;;20.10;52.10;;;;;;5050443;28;20198;-92